createdAt,value
2019-05-14T00:00:33.354Z,52.20
2019-05-14T00:02:37.018Z,51.90
2019-05-14T00:04:42.373Z,52.30
2019-05-14T00:06:46.222Z,52.00
2019-05-14T00:08:52.019Z,52.50
2019-05-14T00:10:55.432Z,52.70
2019-05-14T00:12:59.093Z,53.00
2019-05-14T00:15:02.786Z,52.80
2019-05-14T00:17:06.448Z,52.50
2019-05-14T00:19:11.226Z,52.40
2019-05-14T00:21:14.992Z,53.30
2019-05-14T00:23:21.284Z,53.50
2019-05-14T00:25:24.249Z,53.40
2019-05-14T00:27:27.915Z,53.70
2019-05-14T00:29:32.138Z,53.70
2019-05-14T00:31:35.951Z,53.70
2019-05-14T00:33:41.770Z,53.20
2019-05-14T00:35:45.183Z,54.00
2019-05-14T00:37:48.848Z,53.70
2019-05-14T00:39:52.544Z,53.80
2019-05-14T00:41:56.271Z,53.80
2019-05-14T00:44:01.794Z,54.50
2019-05-14T00:46:05.347Z,54.40
2019-05-14T00:48:09.003Z,54.30
2019-05-14T00:50:12.903Z,54.00
2019-05-14T00:52:16.567Z,53.90
2019-05-14T00:54:21.521Z,54.20
2019-05-14T00:56:25.337Z,54.10
2019-05-14T00:58:30.932Z,53.30
2019-05-14T01:00:35.439Z,54.20
2019-05-14T01:02:41.350Z,54.50
2019-05-14T01:04:44.506Z,54.80
2019-05-14T01:06:48.191Z,54.20
2019-05-14T01:08:52.067Z,54.80
2019-05-14T01:10:55.745Z,54.80
2019-05-14T01:13:01.188Z,54.80
2019-05-14T01:15:10.809Z,54.30
2019-05-14T01:17:12.595Z,54.00
2019-05-14T01:19:16.519Z,54.00
2019-05-14T01:21:21.938Z,54.20
2019-05-14T01:23:25.845Z,53.90
2019-05-14T01:25:31.565Z,55.30
2019-05-14T01:27:35.026Z,55.00
2019-05-14T01:29:38.694Z,55.30
2019-05-14T01:31:42.400Z,55.20
2019-05-14T01:33:46.058Z,55.90
2019-05-14T01:35:51.508Z,55.60
2019-05-14T01:37:55.175Z,55.30
2019-05-14T01:40:01.012Z,55.30
2019-05-14T01:42:04.371Z,54.80
2019-05-14T01:44:08.043Z,55.10
2019-05-14T01:46:12.258Z,54.60
2019-05-14T01:48:16.187Z,54.80
2019-05-14T01:50:21.560Z,54.70
2019-05-14T01:52:25.449Z,54.70
2019-05-14T01:54:31.518Z,55.60
2019-05-14T01:56:34.495Z,55.60
2019-05-14T01:58:38.188Z,55.90
2019-05-14T02:00:41.843Z,55.80
2019-05-14T02:02:45.617Z,55.50
2019-05-14T02:04:51.296Z,55.90
2019-05-14T02:06:56.259Z,55.60
2019-05-14T02:09:01.879Z,55.70
2019-05-14T02:11:05.318Z,55.60
2019-05-14T02:13:09.042Z,56.20
2019-05-14T02:15:12.818Z,56.30
2019-05-14T02:17:16.526Z,56.60
2019-05-14T02:19:22.078Z,57.10
2019-05-14T02:21:25.749Z,57.30
2019-05-14T02:23:31.768Z,57.20
2019-05-14T02:25:34.819Z,57.10
2019-05-14T02:27:38.683Z,57.20
2019-05-14T02:29:42.363Z,57.40
2019-05-14T02:31:46.020Z,57.20
2019-05-14T02:33:50.518Z,57.30
2019-05-14T02:35:54.482Z,56.70
2019-05-14T02:37:59.598Z,56.20
2019-05-14T02:40:05.403Z,57.20
2019-05-14T02:42:09.856Z,57.60
2019-05-14T02:44:13.750Z,57.40
2019-05-14T02:46:21.744Z,57.90
2019-05-14T02:48:23.024Z,58.00
2019-05-14T02:50:29.368Z,57.70
2019-05-14T02:52:32.095Z,57.60
2019-05-14T02:54:35.785Z,57.70
2019-05-14T02:56:40.185Z,57.60
2019-05-14T02:58:44.377Z,57.70
2019-05-14T03:00:49.169Z,58.90
2019-05-14T03:02:53.074Z,59.10
2019-05-14T03:04:59.207Z,59.00
2019-05-14T03:07:02.269Z,59.40
2019-05-14T03:09:09.391Z,59.50
2019-05-14T03:11:11.635Z,59.20
2019-05-14T03:13:15.313Z,59.40
2019-05-14T03:15:20.048Z,59.30
2019-05-14T03:17:23.941Z,59.20
2019-05-14T03:19:29.801Z,59.80
2019-05-14T03:21:33.119Z,59.80
2019-05-14T03:23:39.363Z,59.60
2019-05-14T03:25:42.210Z,59.80
2019-05-14T03:27:49.407Z,59.70
2019-05-14T03:29:51.331Z,59.60
2019-05-14T03:31:54.996Z,60.20
2019-05-14T03:34:02.850Z,59.90
2019-05-14T03:36:09.204Z,59.30
2019-05-14T03:38:09.684Z,59.70
2019-05-14T03:40:13.441Z,59.90
2019-05-14T03:42:19.217Z,60.20
2019-05-14T03:44:22.686Z,60.10
2019-05-14T03:46:44.702Z,60.80
2019-05-14T03:48:31.730Z,60.60
2019-05-14T03:50:38.732Z,60.30
2019-05-14T03:52:41.721Z,61.40
2019-05-14T03:54:45.446Z,61.50
2019-05-14T03:56:49.818Z,61.20
2019-05-14T03:58:53.637Z,61.10
2019-05-14T04:01:01.878Z,60.90
2019-05-14T04:03:09.452Z,60.50
2019-05-14T04:05:11.240Z,60.10
2019-05-14T04:07:19.411Z,61.10
2019-05-14T04:09:22.361Z,61.20
2019-05-14T04:11:29.551Z,62.70
2019-05-14T04:13:33.824Z,63.80
2019-05-14T04:15:39.813Z,63.30
2019-05-14T04:17:45.239Z,63.30
2019-05-14T04:19:52.024Z,63.00
2019-05-14T04:21:59.849Z,62.90
2019-05-14T04:24:04.671Z,62.70
2019-05-14T04:26:09.538Z,62.20
2019-05-14T04:28:19.432Z,61.60
2019-05-14T04:30:24.383Z,61.10
2019-05-14T04:32:29.412Z,60.80
2019-05-14T04:34:39.371Z,61.10
2019-05-14T04:36:41.658Z,60.80
2019-05-14T04:38:51.248Z,60.50
2019-05-14T04:40:51.249Z,60.40
2019-05-14T04:42:55.197Z,60.80
2019-05-14T04:45:02.655Z,61.40
2019-05-14T04:47:22.907Z,61.10
2019-05-14T04:49:09.965Z,62.00
2019-05-14T04:51:13.710Z,61.90
2019-05-14T04:53:19.541Z,61.80
2019-05-14T04:55:22.898Z,61.90
2019-05-14T04:57:29.693Z,62.50
2019-05-14T04:59:31.968Z,60.90
2019-05-14T05:01:35.668Z,61.00
2019-05-14T05:03:40.314Z,60.70
2019-05-14T05:05:44.134Z,60.60
2019-05-14T05:07:49.252Z,60.10
2019-05-14T05:09:53.211Z,60.60
2019-05-14T05:11:59.734Z,60.70
2019-05-14T05:14:02.423Z,60.40
2019-05-14T05:16:06.089Z,60.10
2019-05-14T05:18:09.996Z,60.80
2019-05-14T05:20:13.835Z,61.20
2019-05-14T05:22:19.582Z,60.20
2019-05-14T05:24:23.195Z,60.90
2019-05-14T05:26:28.676Z,60.80
2019-05-14T05:28:32.547Z,60.70
2019-05-14T05:30:38.381Z,59.80
2019-05-14T05:32:41.703Z,60.20
2019-05-14T05:34:45.385Z,59.50
2019-05-14T05:36:49.043Z,59.70
2019-05-14T05:38:52.835Z,59.30
2019-05-14T05:40:57.730Z,59.40
2019-05-14T05:43:01.922Z,57.60
2019-05-14T05:45:08.124Z,56.20
2019-05-14T05:47:11.906Z,57.20
2019-05-14T05:49:15.767Z,57.00
2019-05-14T05:51:19.435Z,57.50
2019-05-14T05:53:23.122Z,56.80
2019-05-14T05:55:28.800Z,57.20
2019-05-14T05:57:32.171Z,56.10
2019-05-14T05:59:35.885Z,55.00
2019-05-14T06:01:46.012Z,56.50
2019-05-14T06:03:45.358Z,56.40
2019-05-14T06:05:49.281Z,56.10
2019-05-14T06:07:53.136Z,55.70
2019-05-14T06:09:58.835Z,55.80
2019-05-14T06:12:02.240Z,55.70
2019-05-14T06:14:08.158Z,55.10
2019-05-14T06:16:11.419Z,54.50
2019-05-14T06:18:21.040Z,54.00
2019-05-14T06:20:21.515Z,53.40
2019-05-14T06:22:25.198Z,54.30
2019-05-14T06:24:28.900Z,54.60
2019-05-14T06:26:32.560Z,53.90
2019-05-14T06:28:40.343Z,54.90
2019-05-14T06:30:41.906Z,54.40
2019-05-14T06:32:45.588Z,54.20
2019-05-14T06:34:49.294Z,53.80
2019-05-14T06:36:53.062Z,53.20
2019-05-14T06:38:58.622Z,52.70
2019-05-14T06:41:02.496Z,51.70
2019-05-14T06:43:06.174Z,51.80
2019-05-14T06:45:11.328Z,50.70
2019-05-14T06:47:14.984Z,51.70
2019-05-14T06:49:18.679Z,51.20
2019-05-14T06:51:22.435Z,52.20
2019-05-14T06:53:28.746Z,51.70
2019-05-14T06:55:31.548Z,52.00
2019-05-14T06:57:35.226Z,51.40
2019-05-14T06:59:38.908Z,51.70
2019-05-14T07:01:42.711Z,52.70
2019-05-14T07:03:48.705Z,52.00
2019-05-14T07:05:51.885Z,51.00
2019-05-14T07:07:55.559Z,51.10
2019-05-14T07:09:59.211Z,52.30
2019-05-14T07:12:02.903Z,52.20
2019-05-14T07:14:10.940Z,51.00
2019-05-14T07:16:11.996Z,49.80
2019-05-14T07:18:15.905Z,52.00
2019-05-14T07:20:19.593Z,50.30
2019-05-14T07:22:23.356Z,47.70
2019-05-14T07:24:28.358Z,48.40
2019-05-14T07:26:32.388Z,48.20
2019-05-14T07:28:36.123Z,48.70
2019-05-14T07:30:40.011Z,48.50
2019-05-14T07:32:43.835Z,48.10
2019-05-14T07:34:48.151Z,47.70
2019-05-14T07:36:52.158Z,48.90
2019-05-14T07:38:56.638Z,49.20
2019-05-14T07:41:01.297Z,50.30
2019-05-14T07:43:04.982Z,50.70
2019-05-14T07:45:09.703Z,50.30
2019-05-14T07:47:13.442Z,49.80
2019-05-14T07:49:18.445Z,52.10
2019-05-14T07:51:22.375Z,52.40
2019-05-14T07:53:36.018Z,50.90
2019-05-14T07:55:31.410Z,48.40
2019-05-14T07:57:35.231Z,48.60
2019-05-14T07:59:38.888Z,49.30
2019-05-14T08:01:42.577Z,49.40
2019-05-14T08:03:48.517Z,49.30
2019-05-14T08:05:51.736Z,49.20
2019-05-14T08:07:55.526Z,48.90
2019-05-14T08:09:59.187Z,46.90
2019-05-14T08:12:02.900Z,44.40
2019-05-14T08:14:08.850Z,45.50
2019-05-14T08:16:11.969Z,46.50
2019-05-14T08:18:15.887Z,44.60
2019-05-14T08:20:19.748Z,44.90
2019-05-14T08:22:23.419Z,46.00
2019-05-14T08:24:29.945Z,43.80
2019-05-14T08:26:32.675Z,43.60
2019-05-14T08:28:38.312Z,44.90
2019-05-14T08:30:41.756Z,45.00
2019-05-14T08:32:45.650Z,43.60
2019-05-14T08:34:49.326Z,44.10
2019-05-14T08:36:52.982Z,44.20
2019-05-14T08:38:58.154Z,45.00
2019-05-14T08:41:01.933Z,46.50
2019-05-14T08:43:05.637Z,42.70
2019-05-14T08:45:13.647Z,41.80
2019-05-14T08:47:15.515Z,42.60
2019-05-14T08:49:19.207Z,42.70
2019-05-14T08:51:22.860Z,42.20
2019-05-14T08:53:28.587Z,43.70
2019-05-14T08:55:31.930Z,45.10
2019-05-14T08:57:38.440Z,43.80
2019-05-14T08:59:41.036Z,43.60
2019-05-14T09:01:58.578Z,44.60
2019-05-14T09:03:50.245Z,41.10
2019-05-14T09:05:54.031Z,42.30
2019-05-14T09:07:58.192Z,42.80
2019-05-14T09:10:01.980Z,42.10
2019-05-14T09:12:12.077Z,42.20
2019-05-14T09:14:11.533Z,44.60
2019-05-14T09:16:15.283Z,45.20
2019-05-14T09:18:18.958Z,45.90
2019-05-14T09:20:22.668Z,42.90
2019-05-14T09:22:28.757Z,42.60
2019-05-14T09:24:31.804Z,43.80
2019-05-14T09:26:35.509Z,42.00
2019-05-14T09:28:39.552Z,41.40
2019-05-14T09:30:43.354Z,41.10
2019-05-14T09:32:49.306Z,41.80
2019-05-14T09:34:52.526Z,42.10
2019-05-14T09:36:59.169Z,40.50
2019-05-14T09:39:01.934Z,43.10
2019-05-14T09:41:12.278Z,42.70
2019-05-14T09:43:10.991Z,42.50
2019-05-14T09:45:15.024Z,42.90
2019-05-14T09:47:19.086Z,46.40
2019-05-14T09:49:22.953Z,47.80
2019-05-14T09:51:28.678Z,45.50
2019-05-14T09:53:32.051Z,45.40
2019-05-14T09:55:35.745Z,45.50
2019-05-14T09:57:39.421Z,44.10
2019-05-14T09:59:43.195Z,44.90
2019-05-14T10:01:50.422Z,44.40
2019-05-14T10:03:52.385Z,45.60
2019-05-14T10:05:58.694Z,44.80
2019-05-14T10:08:01.454Z,44.20
2019-05-14T10:10:07.585Z,43.80
2019-05-14T10:12:11.238Z,44.80
2019-05-14T10:14:14.899Z,45.00
2019-05-14T10:16:19.104Z,44.00
2019-05-14T10:18:22.932Z,43.00
2019-05-14T10:20:39.531Z,42.30
2019-05-14T10:22:32.126Z,39.80
2019-05-14T10:24:38.339Z,40.30
2019-05-14T10:26:41.223Z,41.10
2019-05-14T10:28:44.900Z,44.30
2019-05-14T10:30:49.161Z,43.30
2019-05-14T10:32:53.007Z,43.90
2019-05-14T10:34:58.839Z,42.50
2019-05-14T10:37:02.084Z,41.20
2019-05-14T10:39:09.360Z,40.20
2019-05-14T10:41:12.770Z,41.00
2019-05-14T10:43:19.303Z,41.20
2019-05-14T10:45:21.832Z,40.50
2019-05-14T10:47:25.527Z,40.40
2019-05-14T10:49:29.967Z,43.00
2019-05-14T10:51:34.347Z,44.30
2019-05-14T10:53:38.017Z,44.40
2019-05-14T10:55:41.675Z,45.60
2019-05-14T10:57:45.561Z,46.10
2019-05-14T10:59:49.236Z,47.00
2019-05-14T11:01:53.004Z,46.90
2019-05-14T11:03:56.664Z,45.30
2019-05-14T11:06:00.340Z,45.50
2019-05-14T11:08:04.048Z,45.80
2019-05-14T11:10:09.181Z,43.50
2019-05-14T11:12:13.118Z,43.10
2019-05-14T11:14:19.205Z,42.30
2019-05-14T11:16:23.266Z,42.90
2019-05-14T11:18:29.098Z,42.50
2019-05-14T11:20:32.435Z,42.10
2019-05-14T11:22:36.134Z,43.80
2019-05-14T11:24:39.813Z,42.00
2019-05-14T11:26:43.489Z,44.30
2019-05-14T11:28:49.187Z,43.70
2019-05-14T11:30:52.576Z,43.90
2019-05-14T11:32:58.430Z,43.80
2019-05-14T11:35:01.809Z,43.30
2019-05-14T11:37:05.467Z,44.00
2019-05-14T11:39:09.557Z,43.90
2019-05-14T11:41:13.414Z,44.00
2019-05-14T11:43:17.109Z,44.50
2019-05-14T11:45:21.201Z,45.30
2019-05-14T11:47:24.928Z,44.90
2019-05-14T11:49:28.759Z,44.70
2019-05-14T11:51:58.705Z,44.70
2019-05-14T11:53:38.545Z,45.20
2019-05-14T11:55:42.432Z,44.60
2019-05-14T11:57:48.417Z,45.20
2019-05-14T11:59:51.509Z,43.00
2019-05-14T12:01:55.428Z,44.00
2019-05-14T12:03:59.736Z,43.20
2019-05-14T12:06:03.672Z,45.30
2019-05-14T12:08:08.696Z,43.70
2019-05-14T12:10:12.606Z,43.20
2019-05-14T12:12:18.830Z,42.30
2019-05-14T12:14:21.762Z,43.60
2019-05-14T12:16:25.461Z,43.70
2019-05-14T12:18:29.328Z,41.80
2019-05-14T12:20:33.191Z,42.20
2019-05-14T12:22:39.015Z,39.70
2019-05-14T12:24:42.352Z,40.00
2019-05-14T12:26:46.027Z,39.40
2019-05-14T12:28:49.707Z,40.20
2019-05-14T12:30:53.461Z,41.70
2019-05-14T12:32:59.033Z,42.80
2019-05-14T12:35:02.571Z,42.50
2019-05-14T12:37:08.841Z,41.50
2019-05-14T12:39:11.751Z,42.00
2019-05-14T12:41:19.072Z,42.40
2019-05-14T12:43:20.931Z,41.90
2019-05-14T12:45:24.624Z,39.80
2019-05-14T12:47:29.069Z,39.20
2019-05-14T12:49:32.988Z,40.20
2019-05-14T12:51:41.622Z,39.80
2019-05-14T12:53:42.073Z,40.60
2019-05-14T12:55:48.514Z,40.20
2019-05-14T12:57:51.293Z,39.60
2019-05-14T12:59:55.041Z,36.60
2019-05-14T13:01:58.904Z,38.00
2019-05-14T13:04:02.588Z,38.30
2019-05-14T13:06:09.741Z,38.30
2019-05-14T13:08:11.842Z,40.90
2019-05-14T13:10:15.507Z,40.40
2019-05-14T13:12:19.196Z,40.60
2019-05-14T13:14:22.877Z,39.80
2019-05-14T13:16:28.481Z,40.50
2019-05-14T13:18:32.389Z,41.20
2019-05-14T13:20:38.687Z,38.70
2019-05-14T13:22:46.052Z,40.30
2019-05-14T13:24:49.197Z,37.40
2019-05-14T13:26:52.326Z,38.40
2019-05-14T13:28:58.639Z,39.10
2019-05-14T13:31:01.584Z,38.70
2019-05-14T13:33:08.611Z,39.40
2019-05-14T13:35:13.703Z,38.00
2019-05-14T13:37:16.855Z,39.90
2019-05-14T13:39:20.525Z,41.10
2019-05-14T13:41:24.257Z,42.60
2019-05-14T13:43:30.439Z,43.40
2019-05-14T13:45:33.354Z,43.60
2019-05-14T13:47:38.703Z,42.00
2019-05-14T13:49:42.569Z,41.70
2019-05-14T13:51:48.827Z,40.80
2019-05-14T13:53:51.664Z,37.70
2019-05-14T13:55:57.869Z,37.90
2019-05-14T13:58:01.409Z,39.50
2019-05-14T14:00:11.871Z,39.40
2019-05-14T14:02:12.481Z,40.50
2019-05-14T14:04:18.354Z,40.60
2019-05-14T14:06:21.623Z,40.00
2019-05-14T14:08:25.373Z,40.10
2019-05-14T14:10:36.262Z,41.40
2019-05-14T14:12:39.823Z,40.80
2019-05-14T14:14:41.797Z,40.40
2019-05-14T14:16:45.469Z,41.30
2019-05-14T14:18:50.023Z,40.20
2019-05-14T14:20:55.030Z,38.90
2019-05-14T14:23:09.168Z,39.30
2019-05-14T14:25:05.620Z,39.10
2019-05-14T14:27:09.328Z,41.00
2019-05-14T14:29:12.978Z,41.80
2019-05-14T14:31:18.673Z,42.70
2019-05-14T14:33:22.226Z,42.20
2019-05-14T14:35:25.911Z,42.70
2019-05-14T14:37:29.569Z,41.50
2019-05-14T14:39:33.295Z,39.80
2019-05-14T14:41:38.486Z,39.90
2019-05-14T14:43:44.282Z,40.00
2019-05-14T14:45:50.921Z,40.30
2019-05-14T14:47:53.430Z,41.90
2019-05-14T14:50:00.364Z,41.40
2019-05-14T14:52:02.523Z,41.30
2019-05-14T14:54:11.817Z,42.70
2019-05-14T14:56:11.785Z,41.70
2019-05-14T14:58:15.788Z,43.00
2019-05-14T15:00:20.673Z,42.60
2019-05-14T15:02:24.354Z,41.50
2019-05-14T15:04:28.052Z,41.20
2019-05-14T15:06:31.819Z,42.30
2019-05-14T15:08:35.554Z,43.00
2019-05-14T15:10:39.641Z,43.50
2019-05-14T15:12:43.412Z,43.30
2019-05-14T15:14:48.754Z,42.20
2019-05-14T15:16:52.682Z,41.80
2019-05-14T15:18:58.331Z,42.70
2019-05-14T15:21:01.856Z,42.20
2019-05-14T15:23:05.620Z,41.90
2019-05-14T15:25:09.878Z,42.60
2019-05-14T15:27:15.258Z,39.80
2019-05-14T15:29:19.112Z,40.30
2019-05-14T15:31:22.797Z,40.40
2019-05-14T15:33:26.471Z,40.80
2019-05-14T15:35:30.186Z,41.10
2019-05-14T15:37:33.850Z,40.90
2019-05-14T15:39:39.144Z,41.70
2019-05-14T15:41:43.037Z,42.10
2019-05-14T15:43:46.707Z,42.10
2019-05-14T15:45:50.415Z,42.00
2019-05-14T15:47:54.093Z,42.70
2019-05-14T15:49:59.492Z,41.50
2019-05-14T15:52:03.339Z,40.60
2019-05-14T15:54:31.174Z,40.80
2019-05-14T15:56:12.459Z,41.10
2019-05-14T15:58:20.875Z,41.30
2019-05-14T16:00:22.195Z,40.60
2019-05-14T16:02:29.208Z,40.50
2019-05-14T16:04:31.265Z,40.40
2019-05-14T16:06:34.960Z,41.30
2019-05-14T16:08:40.217Z,40.70
2019-05-14T16:10:44.100Z,39.40
2019-05-14T16:12:49.737Z,39.40
2019-05-14T16:14:53.178Z,39.70
2019-05-14T16:16:56.913Z,39.40
2019-05-14T16:19:00.565Z,38.40
2019-05-14T16:21:04.444Z,39.00
2019-05-14T16:23:10.886Z,38.80
2019-05-14T16:25:13.951Z,39.20
2019-05-14T16:27:19.746Z,41.00
2019-05-14T16:29:36.819Z,41.80
2019-05-14T16:31:31.613Z,43.90
2019-05-14T16:33:34.255Z,45.70
2019-05-14T16:35:39.285Z,44.90
2019-05-14T16:37:43.108Z,43.90
2019-05-14T16:39:48.910Z,43.90
2019-05-14T16:41:52.261Z,44.70
2019-05-14T16:43:58.568Z,44.60
2019-05-14T16:46:01.641Z,44.20
2019-05-14T16:48:05.403Z,43.90
2019-05-14T16:50:09.699Z,42.70
2019-05-14T16:52:13.448Z,42.70
2019-05-14T16:54:18.184Z,42.40
2019-05-14T16:56:22.197Z,43.30
2019-05-14T16:58:25.891Z,44.10
2019-05-14T17:00:29.677Z,44.40
2019-05-14T17:02:33.455Z,42.80
2019-05-14T17:04:38.725Z,44.10
2019-05-14T17:06:42.726Z,45.40
2019-05-14T17:08:48.647Z,45.50
2019-05-14T17:10:51.863Z,45.40
2019-05-14T17:12:57.432Z,44.40
2019-05-14T17:15:01.118Z,46.00
2019-05-14T17:17:04.903Z,45.70
2019-05-14T17:19:09.267Z,44.80
2019-05-14T17:21:13.157Z,44.00
2019-05-14T17:23:19.121Z,42.60
2019-05-14T17:25:27.245Z,43.30
2019-05-14T17:27:28.584Z,43.20
2019-05-14T17:29:32.534Z,42.80
2019-05-14T17:31:39.062Z,43.50
2019-05-14T17:33:43.260Z,43.20
2019-05-14T17:35:48.252Z,44.00
2019-05-14T17:37:52.440Z,44.00
2019-05-14T17:39:58.105Z,44.70
2019-05-14T17:42:01.552Z,45.80
2019-05-14T17:44:06.010Z,46.30
2019-05-14T17:46:10.072Z,46.10
2019-05-14T17:48:13.995Z,46.60
2019-05-14T17:50:18.422Z,46.70
2019-05-14T17:52:22.228Z,46.20
2019-05-14T17:54:28.233Z,45.30
2019-05-14T17:56:31.344Z,45.60
2019-05-14T17:58:35.125Z,45.20
2019-05-14T18:00:38.818Z,44.70
2019-05-14T18:02:43.800Z,44.50
2019-05-14T18:04:48.800Z,44.20
2019-05-14T18:06:52.661Z,44.30
2019-05-14T18:08:58.319Z,44.90
2019-05-14T18:11:01.991Z,45.20
2019-05-14T18:13:05.653Z,44.60
2019-05-14T18:15:09.765Z,46.90
2019-05-14T18:17:14.846Z,47.30
2019-05-14T18:19:18.843Z,45.70
2019-05-14T18:21:22.499Z,45.40
2019-05-14T18:23:28.776Z,46.20
2019-05-14T18:25:31.611Z,47.00
2019-05-14T18:27:35.374Z,47.20
2019-05-14T18:29:39.229Z,48.30
2019-05-14T18:31:44.738Z,50.90
2019-05-14T18:33:49.092Z,51.90
2019-05-14T18:35:53.407Z,52.00
2019-05-14T18:37:57.194Z,53.90
2019-05-14T18:40:00.929Z,54.00
2019-05-14T18:42:04.645Z,54.20
2019-05-14T18:44:08.524Z,54.40
2019-05-14T18:46:12.380Z,54.50
2019-05-14T18:48:16.056Z,55.20
2019-05-14T18:50:20.505Z,56.10
2019-05-14T18:52:24.229Z,56.50
2019-05-14T18:54:29.300Z,55.70
2019-05-14T18:56:33.395Z,56.10
2019-05-14T18:58:38.679Z,56.40
2019-05-14T19:00:42.504Z,56.00
2019-05-14T19:02:48.226Z,56.40
2019-05-14T19:04:51.791Z,56.30
2019-05-14T19:06:55.509Z,57.30
2019-05-14T19:08:59.176Z,57.80
2019-05-14T19:11:02.903Z,58.20
2019-05-14T19:13:08.783Z,58.00
2019-05-14T19:15:12.106Z,59.00
2019-05-14T19:17:15.791Z,59.70
2019-05-14T19:19:20.712Z,60.10
2019-05-14T19:21:24.557Z,61.70
2019-05-14T19:23:28.872Z,64.00
2019-05-14T19:25:32.854Z,62.70
2019-05-14T19:27:38.036Z,63.50
2019-05-14T19:29:42.023Z,64.30
2019-05-14T19:31:47.961Z,64.70
2019-05-14T19:33:51.145Z,64.30
2019-05-14T19:35:54.819Z,63.70
2019-05-14T19:37:59.467Z,63.70
2019-05-14T19:40:04.500Z,62.10
2019-05-14T19:42:08.704Z,62.20
2019-05-14T19:44:12.487Z,61.10
2019-05-14T19:46:16.148Z,60.40
2019-05-14T19:48:19.869Z,60.40
2019-05-14T19:50:23.754Z,63.10
2019-05-14T19:52:28.266Z,63.50
2019-05-14T19:54:32.280Z,64.10
2019-05-14T19:56:52.356Z,63.50
2019-05-14T19:58:42.831Z,64.10
2019-05-14T20:00:48.687Z,63.60
2019-05-14T20:02:52.100Z,62.70
2019-05-14T20:04:55.801Z,62.50
2019-05-14T20:06:59.463Z,62.70
2019-05-14T20:09:04.328Z,61.80
2019-05-14T20:11:08.019Z,60.90
2019-05-14T20:13:11.699Z,61.30
2019-05-14T20:15:15.570Z,62.30
2019-05-14T20:17:19.555Z,64.30
2019-05-14T20:19:23.347Z,64.30
2019-05-14T20:21:28.220Z,63.90
2019-05-14T20:23:32.302Z,64.20
2019-05-14T20:25:35.964Z,63.70
2019-05-14T20:27:39.622Z,63.60
2019-05-14T20:29:43.455Z,63.30
2019-05-14T20:31:48.228Z,63.00
2019-05-14T20:33:51.998Z,61.80
2019-05-14T20:35:55.661Z,61.80
2019-05-14T20:37:59.330Z,62.00
2019-05-14T20:40:03.731Z,62.20
2019-05-14T20:42:09.190Z,62.50
2019-05-14T20:44:12.868Z,62.00
2019-05-14T20:46:18.495Z,61.90
2019-05-14T20:48:21.947Z,61.50
2019-05-14T20:50:28.759Z,61.90
2019-05-14T20:52:31.108Z,61.90
2019-05-14T20:54:34.813Z,61.90
2019-05-14T20:56:40.224Z,62.10
2019-05-14T20:58:43.991Z,61.20
2019-05-14T21:00:48.447Z,62.30
2019-05-14T21:02:52.374Z,61.50
2019-05-14T21:05:03.846Z,65.20
2019-05-14T21:07:01.879Z,66.70
2019-05-14T21:09:06.594Z,66.40
2019-05-14T21:11:10.629Z,66.70
2019-05-14T21:13:14.282Z,66.00
2019-05-14T21:15:18.282Z,66.30
2019-05-14T21:17:22.027Z,64.10
2019-05-14T21:19:25.813Z,63.30
2019-05-14T21:21:29.532Z,62.80
2019-05-14T21:23:33.308Z,61.90
2019-05-14T21:25:38.676Z,63.20
2019-05-14T21:27:48.350Z,62.30
2019-05-14T21:29:48.905Z,62.80
2019-05-14T21:31:54.039Z,61.80
2019-05-14T21:33:58.597Z,61.10
2019-05-14T21:36:02.568Z,62.30
2019-05-14T21:38:08.894Z,62.10
2019-05-14T21:40:11.774Z,62.30
2019-05-14T21:42:15.467Z,62.10
2019-05-14T21:44:19.139Z,61.30
2019-05-14T21:46:22.821Z,60.70
2019-05-14T21:48:28.734Z,60.10
2019-05-14T21:50:31.925Z,59.80
2019-05-14T21:52:35.653Z,59.50
2019-05-14T21:54:39.717Z,59.30
2019-05-14T21:56:43.516Z,59.70
2019-05-14T21:58:48.158Z,60.40
2019-05-14T22:00:53.999Z,60.00
2019-05-14T22:02:58.431Z,59.20
2019-05-14T22:05:02.317Z,60.90
2019-05-14T22:07:06.086Z,60.40
2019-05-14T22:09:09.949Z,61.80
2019-05-14T22:11:13.649Z,63.10
2019-05-14T22:13:18.158Z,63.30
2019-05-14T22:15:21.950Z,62.50
2019-05-14T22:17:25.642Z,63.30
2019-05-14T22:19:29.457Z,63.50
2019-05-14T22:21:33.122Z,63.80
2019-05-14T22:23:38.813Z,62.70
2019-05-14T22:25:42.319Z,63.60
2019-05-14T22:27:48.442Z,62.60
2019-05-14T22:29:52.227Z,61.40
2019-05-14T22:31:55.911Z,62.20
2019-05-14T22:33:59.604Z,61.80
2019-05-14T22:36:03.275Z,60.60
2019-05-14T22:38:07.011Z,60.00
2019-05-14T22:40:10.766Z,59.60
2019-05-14T22:42:14.449Z,60.20
2019-05-14T22:44:18.715Z,60.80
2019-05-14T22:46:22.575Z,60.70
2019-05-14T22:48:26.272Z,60.90
2019-05-14T22:50:29.939Z,60.10
2019-05-14T22:52:33.617Z,59.70
2019-05-14T22:54:38.728Z,59.30
2019-05-14T22:56:42.524Z,59.00
2019-05-14T22:58:48.642Z,59.80
2019-05-14T23:01:06.697Z,58.90
2019-05-14T23:02:57.023Z,59.60
2019-05-14T23:05:00.699Z,59.00
2019-05-14T23:07:04.354Z,59.10
2019-05-14T23:09:09.008Z,59.10
2019-05-14T23:11:12.944Z,59.40
2019-05-14T23:13:18.562Z,59.40
2019-05-14T23:15:22.053Z,59.10
2019-05-14T23:17:27.929Z,59.30
2019-05-14T23:19:31.126Z,59.30
2019-05-14T23:21:34.805Z,59.40
2019-05-14T23:23:39.291Z,59.70
2019-05-14T23:25:43.169Z,60.40
2019-05-14T23:27:48.163Z,60.90
2019-05-14T23:29:52.214Z,60.90
2019-05-14T23:31:55.872Z,61.00
2019-05-14T23:33:59.702Z,60.80
2019-05-14T23:36:03.383Z,60.30
2019-05-14T23:38:08.349Z,60.50
2019-05-14T23:40:12.328Z,61.10
2019-05-14T23:42:18.514Z,61.60
2019-05-14T23:44:21.455Z,62.40
2019-05-14T23:46:25.191Z,64.20
2019-05-14T23:48:28.859Z,63.70
2019-05-14T23:50:32.546Z,63.40
2019-05-14T23:52:38.567Z,63.00
2019-05-14T23:54:41.725Z,62.30
2019-05-14T23:56:45.416Z,62.20
2019-05-14T23:58:55.706Z,62.40
